sensor_id;sensor_type;location;lat;lon;timestamp;temperature;humidity
53294;DHT22;39181;53.440;5.644;2023-12-04T00:00:05;0.60;99.90
53294;DHT22;39181;53.440;5.644;2023-12-04T00:02:32;0.30;99.90
53294;DHT22;39181;53.440;5.644;2023-12-04T00:04:58;0.20;99.90
53294;DHT22;39181;53.440;5.644;2023-12-04T00:07:23;0.60;99.90
53294;DHT22;39181;53.440;5.644;2023-12-04T00:09:49;0.20;99.90
53294;DHT22;39181;53.440;5.644;2023-12-04T00:12:14;0.10;99.90
53294;DHT22;39181;53.440;5.644;2023-12-04T00:14:40;0.20;99.90
53294;DHT22;39181;53.440;5.644;2023-12-04T00:17:05;0.60;99.90
53294;DHT22;39181;53.440;5.644;2023-12-04T00:19:31;0.50;99.90
53294;DHT22;39181;53.440;5.644;2023-12-04T00:21:57;-0.10;99.90
53294;DHT22;39181;53.440;5.644;2023-12-04T00:24:22;0.60;99.90
53294;DHT22;39181;53.440;5.644;2023-12-04T00:26:48;0.30;99.90
53294;DHT22;39181;53.440;5.644;2023-12-04T00:29:13;0.50;99.90
53294;DHT22;39181;53.440;5.644;2023-12-04T00:31:39;-0.10;99.90
53294;DHT22;39181;53.440;5.644;2023-12-04T00:34:05;0.20;99.90
53294;DHT22;39181;53.440;5.644;2023-12-04T00:36:30;0.30;99.90
53294;DHT22;39181;53.440;5.644;2023-12-04T00:38:56;0.60;99.90
53294;DHT22;39181;53.440;5.644;2023-12-04T00:41:21;0.50;99.90
53294;DHT22;39181;53.440;5.644;2023-12-04T00:43:47;0.30;99.90
53294;DHT22;39181;53.440;5.644;2023-12-04T00:46:13;0.00;99.90
53294;DHT22;39181;53.440;5.644;2023-12-04T00:48:38;0.10;99.90
53294;DHT22;39181;53.440;5.644;2023-12-04T00:51:04;0.40;99.90
53294;DHT22;39181;53.440;5.644;2023-12-04T00:53:30;0.50;99.90
53294;DHT22;39181;53.440;5.644;2023-12-04T00:55:55;0.00;99.90
53294;DHT22;39181;53.440;5.644;2023-12-04T00:58:21;0.50;99.90
53294;DHT22;39181;53.440;5.644;2023-12-04T01:00:46;0.50;99.90
53294;DHT22;39181;53.440;5.644;2023-12-04T01:03:14;0.10;99.90
53294;DHT22;39181;53.440;5.644;2023-12-04T01:05:40;-0.20;99.90
53294;DHT22;39181;53.440;5.644;2023-12-04T01:08:05;1.00;99.90
53294;DHT22;39181;53.440;5.644;2023-12-04T01:10:31;0.40;99.90
53294;DHT22;39181;53.440;5.644;2023-12-04T01:12:56;0.40;99.90
53294;DHT22;39181;53.440;5.644;2023-12-04T01:15:22;0.00;99.90
53294;DHT22;39181;53.440;5.644;2023-12-04T01:17:49;-0.10;99.90
53294;DHT22;39181;53.440;5.644;2023-12-04T01:20:14;0.40;99.90
53294;DHT22;39181;53.440;5.644;2023-12-04T01:22:40;-0.10;99.90
53294;DHT22;39181;53.440;5.644;2023-12-04T01:25:06;0.40;99.90
53294;DHT22;39181;53.440;5.644;2023-12-04T01:27:32;0.40;99.90
53294;DHT22;39181;53.440;5.644;2023-12-04T01:30:01;-0.10;99.90
53294;DHT22;39181;53.440;5.644;2023-12-04T01:32:26;0.50;99.90
53294;DHT22;39181;53.440;5.644;2023-12-04T01:34:52;0.20;99.90
53294;DHT22;39181;53.440;5.644;2023-12-04T01:37:17;0.50;99.90
53294;DHT22;39181;53.440;5.644;2023-12-04T01:39:43;-0.10;99.90
53294;DHT22;39181;53.440;5.644;2023-12-04T01:42:09;-0.10;99.90
53294;DHT22;39181;53.440;5.644;2023-12-04T01:44:34;-0.10;99.90
53294;DHT22;39181;53.440;5.644;2023-12-04T01:47:02;-0.20;99.90
53294;DHT22;39181;53.440;5.644;2023-12-04T01:49:27;0.50;99.90
53294;DHT22;39181;53.440;5.644;2023-12-04T01:51:54;-0.10;99.90
53294;DHT22;39181;53.440;5.644;2023-12-04T01:54:20;0.10;99.90
53294;DHT22;39181;53.440;5.644;2023-12-04T01:56:46;0.50;99.90
53294;DHT22;39181;53.440;5.644;2023-12-04T01:59:12;0.60;99.90
53294;DHT22;39181;53.440;5.644;2023-12-04T02:01:39;0.10;99.90
53294;DHT22;39181;53.440;5.644;2023-12-04T02:04:06;-0.10;99.90
53294;DHT22;39181;53.440;5.644;2023-12-04T02:06:31;0.60;99.90
53294;DHT22;39181;53.440;5.644;2023-12-04T02:08:57;0.10;99.90
53294;DHT22;39181;53.440;5.644;2023-12-04T02:11:23;-0.10;99.90
53294;DHT22;39181;53.440;5.644;2023-12-04T02:13:48;0.30;99.90
53294;DHT22;39181;53.440;5.644;2023-12-04T02:16:15;0.60;99.90
53294;DHT22;39181;53.440;5.644;2023-12-04T02:18:41;-0.10;99.90
53294;DHT22;39181;53.440;5.644;2023-12-04T02:21:07;0.30;99.90
53294;DHT22;39181;53.440;5.644;2023-12-04T02:23:33;-0.10;99.90
53294;DHT22;39181;53.440;5.644;2023-12-04T02:26:02;0.60;99.90
53294;DHT22;39181;53.440;5.644;2023-12-04T02:28:33;0.60;99.90
53294;DHT22;39181;53.440;5.644;2023-12-04T02:31:01;0.00;99.90
53294;DHT22;39181;53.440;5.644;2023-12-04T02:33:29;0.60;99.90
53294;DHT22;39181;53.440;5.644;2023-12-04T02:35:57;-0.10;99.90
53294;DHT22;39181;53.440;5.644;2023-12-04T02:38:24;0.00;99.90
53294;DHT22;39181;53.440;5.644;2023-12-04T02:40:50;0.00;99.90
53294;DHT22;39181;53.440;5.644;2023-12-04T02:43:16;0.70;99.90
53294;DHT22;39181;53.440;5.644;2023-12-04T02:45:42;0.70;99.90
53294;DHT22;39181;53.440;5.644;2023-12-04T02:48:07;0.00;99.90
53294;DHT22;39181;53.440;5.644;2023-12-04T02:50:33;0.00;99.90
53294;DHT22;39181;53.440;5.644;2023-12-04T02:52:59;0.40;99.90
53294;DHT22;39181;53.440;5.644;2023-12-04T02:55:24;0.60;99.90
53294;DHT22;39181;53.440;5.644;2023-12-04T02:57:50;0.00;99.90
53294;DHT22;39181;53.440;5.644;2023-12-04T03:00:15;0.20;99.90
53294;DHT22;39181;53.440;5.644;2023-12-04T03:02:41;0.30;99.90
53294;DHT22;39181;53.440;5.644;2023-12-04T03:05:07;0.20;99.90
53294;DHT22;39181;53.440;5.644;2023-12-04T03:07:32;0.10;99.90
53294;DHT22;39181;53.440;5.644;2023-12-04T03:09:58;0.60;99.90
53294;DHT22;39181;53.440;5.644;2023-12-04T03:12:23;0.10;99.90
53294;DHT22;39181;53.440;5.644;2023-12-04T03:14:49;0.20;99.90
53294;DHT22;39181;53.440;5.644;2023-12-04T03:17:14;0.40;99.90
53294;DHT22;39181;53.440;5.644;2023-12-04T03:19:40;0.60;99.90
53294;DHT22;39181;53.440;5.644;2023-12-04T03:22:06;0.20;99.90
53294;DHT22;39181;53.440;5.644;2023-12-04T03:24:31;0.70;99.90
53294;DHT22;39181;53.440;5.644;2023-12-04T03:26:57;0.80;99.90
53294;DHT22;39181;53.440;5.644;2023-12-04T03:29:22;0.10;99.90
53294;DHT22;39181;53.440;5.644;2023-12-04T03:31:48;0.20;99.90
53294;DHT22;39181;53.440;5.644;2023-12-04T03:34:13;0.70;99.90
53294;DHT22;39181;53.440;5.644;2023-12-04T03:36:39;0.10;99.90
53294;DHT22;39181;53.440;5.644;2023-12-04T03:39:04;0.10;99.90
53294;DHT22;39181;53.440;5.644;2023-12-04T03:41:30;0.70;99.90
53294;DHT22;39181;53.440;5.644;2023-12-04T03:43:55;0.10;99.90
53294;DHT22;39181;53.440;5.644;2023-12-04T03:46:21;0.00;99.90
53294;DHT22;39181;53.440;5.644;2023-12-04T03:48:46;0.70;99.90
53294;DHT22;39181;53.440;5.644;2023-12-04T03:51:12;0.60;99.90
53294;DHT22;39181;53.440;5.644;2023-12-04T03:53:37;0.70;99.90
53294;DHT22;39181;53.440;5.644;2023-12-04T03:56:03;0.70;99.90
53294;DHT22;39181;53.440;5.644;2023-12-04T03:58:29;0.60;99.90
53294;DHT22;39181;53.440;5.644;2023-12-04T04:00:55;0.60;99.90
53294;DHT22;39181;53.440;5.644;2023-12-04T04:03:20;0.10;99.90
53294;DHT22;39181;53.440;5.644;2023-12-04T04:05:46;0.70;99.90
53294;DHT22;39181;53.440;5.644;2023-12-04T04:08:11;0.20;99.90
53294;DHT22;39181;53.440;5.644;2023-12-04T04:10:37;0.80;99.90
53294;DHT22;39181;53.440;5.644;2023-12-04T04:13:02;0.70;99.90
53294;DHT22;39181;53.440;5.644;2023-12-04T04:15:28;0.20;99.90
53294;DHT22;39181;53.440;5.644;2023-12-04T04:17:54;0.50;99.90
53294;DHT22;39181;53.440;5.644;2023-12-04T04:20:20;0.10;99.90
53294;DHT22;39181;53.440;5.644;2023-12-04T04:22:48;0.10;99.90
53294;DHT22;39181;53.440;5.644;2023-12-04T04:25:14;0.20;99.90
53294;DHT22;39181;53.440;5.644;2023-12-04T04:27:39;0.70;99.90
53294;DHT22;39181;53.440;5.644;2023-12-04T04:30:05;0.20;99.90
53294;DHT22;39181;53.440;5.644;2023-12-04T04:32:31;0.70;99.90
53294;DHT22;39181;53.440;5.644;2023-12-04T04:34:57;0.10;99.90
53294;DHT22;39181;53.440;5.644;2023-12-04T04:37:22;0.20;99.90
53294;DHT22;39181;53.440;5.644;2023-12-04T04:39:48;0.30;99.90
53294;DHT22;39181;53.440;5.644;2023-12-04T04:42:14;0.20;99.90
53294;DHT22;39181;53.440;5.644;2023-12-04T04:44:40;0.10;99.90
53294;DHT22;39181;53.440;5.644;2023-12-04T04:47:05;0.20;99.90
53294;DHT22;39181;53.440;5.644;2023-12-04T04:49:31;0.10;99.90
53294;DHT22;39181;53.440;5.644;2023-12-04T04:51:56;0.40;99.90
53294;DHT22;39181;53.440;5.644;2023-12-04T04:54:22;0.30;99.90
53294;DHT22;39181;53.440;5.644;2023-12-04T04:56:48;0.10;99.90
53294;DHT22;39181;53.440;5.644;2023-12-04T04:59:13;0.10;99.90
53294;DHT22;39181;53.440;5.644;2023-12-04T05:01:39;0.90;99.90
53294;DHT22;39181;53.440;5.644;2023-12-04T05:04:04;0.30;99.90
53294;DHT22;39181;53.440;5.644;2023-12-04T05:06:30;0.70;99.90
53294;DHT22;39181;53.440;5.644;2023-12-04T05:08:56;0.10;99.90
53294;DHT22;39181;53.440;5.644;2023-12-04T05:11:22;0.30;99.90
53294;DHT22;39181;53.440;5.644;2023-12-04T05:13:47;0.80;99.90
53294;DHT22;39181;53.440;5.644;2023-12-04T05:16:13;0.70;99.90
53294;DHT22;39181;53.440;5.644;2023-12-04T05:18:39;0.70;99.90
53294;DHT22;39181;53.440;5.644;2023-12-04T05:21:09;0.30;99.90
53294;DHT22;39181;53.440;5.644;2023-12-04T05:23:35;0.30;99.90
53294;DHT22;39181;53.440;5.644;2023-12-04T05:26:00;0.10;99.90
53294;DHT22;39181;53.440;5.644;2023-12-04T05:28:26;0.80;99.90
53294;DHT22;39181;53.440;5.644;2023-12-04T05:30:52;0.40;99.90
53294;DHT22;39181;53.440;5.644;2023-12-04T05:33:17;0.60;99.90
53294;DHT22;39181;53.440;5.644;2023-12-04T05:35:43;0.30;99.90
53294;DHT22;39181;53.440;5.644;2023-12-04T05:38:08;0.20;99.90
53294;DHT22;39181;53.440;5.644;2023-12-04T05:40:34;0.20;99.90
53294;DHT22;39181;53.440;5.644;2023-12-04T05:43:00;0.20;99.90
53294;DHT22;39181;53.440;5.644;2023-12-04T05:45:25;0.20;99.90
53294;DHT22;39181;53.440;5.644;2023-12-04T05:47:51;0.40;99.90
53294;DHT22;39181;53.440;5.644;2023-12-04T05:50:18;0.70;99.90
53294;DHT22;39181;53.440;5.644;2023-12-04T05:52:43;0.30;99.90
53294;DHT22;39181;53.440;5.644;2023-12-04T05:55:09;0.40;99.90
53294;DHT22;39181;53.440;5.644;2023-12-04T05:57:35;0.40;99.90
53294;DHT22;39181;53.440;5.644;2023-12-04T06:00:00;0.30;99.90
53294;DHT22;39181;53.440;5.644;2023-12-04T06:02:26;0.50;99.90
53294;DHT22;39181;53.440;5.644;2023-12-04T06:04:55;0.20;99.90
53294;DHT22;39181;53.440;5.644;2023-12-04T06:07:21;0.20;99.90
53294;DHT22;39181;53.440;5.644;2023-12-04T06:09:46;0.60;99.90
53294;DHT22;39181;53.440;5.644;2023-12-04T06:12:12;0.50;99.90
53294;DHT22;39181;53.440;5.644;2023-12-04T06:14:37;0.70;99.90
53294;DHT22;39181;53.440;5.644;2023-12-04T06:17:03;0.80;99.90
53294;DHT22;39181;53.440;5.644;2023-12-04T06:19:29;0.40;99.90
53294;DHT22;39181;53.440;5.644;2023-12-04T06:21:55;0.40;99.90
53294;DHT22;39181;53.440;5.644;2023-12-04T06:24:21;0.30;99.90
53294;DHT22;39181;53.440;5.644;2023-12-04T06:26:49;0.40;99.90
53294;DHT22;39181;53.440;5.644;2023-12-04T06:29:15;0.30;99.90
53294;DHT22;39181;53.440;5.644;2023-12-04T06:31:41;0.60;99.90
53294;DHT22;39181;53.440;5.644;2023-12-04T06:34:10;0.80;99.90
53294;DHT22;39181;53.440;5.644;2023-12-04T06:36:38;0.30;99.90
53294;DHT22;39181;53.440;5.644;2023-12-04T06:39:09;0.60;99.90
53294;DHT22;39181;53.440;5.644;2023-12-04T06:41:35;0.30;99.90
53294;DHT22;39181;53.440;5.644;2023-12-04T06:44:01;0.80;99.90
53294;DHT22;39181;53.440;5.644;2023-12-04T06:46:28;0.60;99.90
53294;DHT22;39181;53.440;5.644;2023-12-04T06:48:57;0.30;99.90
53294;DHT22;39181;53.440;5.644;2023-12-04T06:51:24;0.80;99.90
53294;DHT22;39181;53.440;5.644;2023-12-04T06:53:50;0.80;99.90
53294;DHT22;39181;53.440;5.644;2023-12-04T06:56:15;0.80;99.90
53294;DHT22;39181;53.440;5.644;2023-12-04T06:58:41;0.80;99.90
53294;DHT22;39181;53.440;5.644;2023-12-04T07:01:06;0.20;99.90
53294;DHT22;39181;53.440;5.644;2023-12-04T07:03:32;0.70;99.90
53294;DHT22;39181;53.440;5.644;2023-12-04T07:05:57;0.80;99.90
53294;DHT22;39181;53.440;5.644;2023-12-04T07:08:23;0.80;99.90
53294;DHT22;39181;53.440;5.644;2023-12-04T07:10:48;0.70;99.90
53294;DHT22;39181;53.440;5.644;2023-12-04T07:13:14;0.30;99.90
53294;DHT22;39181;53.440;5.644;2023-12-04T07:15:40;0.60;99.90
53294;DHT22;39181;53.440;5.644;2023-12-04T07:18:05;0.70;99.90
53294;DHT22;39181;53.440;5.644;2023-12-04T07:20:31;0.70;99.90
53294;DHT22;39181;53.440;5.644;2023-12-04T07:22:56;0.60;99.90
53294;DHT22;39181;53.440;5.644;2023-12-04T07:25:23;0.70;99.90
53294;DHT22;39181;53.440;5.644;2023-12-04T07:27:49;0.60;99.90
53294;DHT22;39181;53.440;5.644;2023-12-04T07:30:15;0.30;99.90
53294;DHT22;39181;53.440;5.644;2023-12-04T07:32:40;0.50;99.90
53294;DHT22;39181;53.440;5.644;2023-12-04T07:35:07;0.70;99.90
53294;DHT22;39181;53.440;5.644;2023-12-04T07:37:32;0.20;99.90
53294;DHT22;39181;53.440;5.644;2023-12-04T07:39:58;0.20;99.90
53294;DHT22;39181;53.440;5.644;2023-12-04T07:42:24;0.50;99.90
53294;DHT22;39181;53.440;5.644;2023-12-04T07:44:50;0.20;99.90
53294;DHT22;39181;53.440;5.644;2023-12-04T07:47:15;0.20;99.90
53294;DHT22;39181;53.440;5.644;2023-12-04T07:49:42;0.50;99.90
53294;DHT22;39181;53.440;5.644;2023-12-04T07:52:08;0.20;99.90
53294;DHT22;39181;53.440;5.644;2023-12-04T07:54:33;0.20;99.90
53294;DHT22;39181;53.440;5.644;2023-12-04T07:56:59;0.80;99.90
53294;DHT22;39181;53.440;5.644;2023-12-04T07:59:25;0.20;99.90
53294;DHT22;39181;53.440;5.644;2023-12-04T08:01:51;0.60;99.90
53294;DHT22;39181;53.440;5.644;2023-12-04T08:04:17;0.20;99.90
53294;DHT22;39181;53.440;5.644;2023-12-04T08:06:42;0.80;99.90
53294;DHT22;39181;53.440;5.644;2023-12-04T08:09:08;0.50;99.90
53294;DHT22;39181;53.440;5.644;2023-12-04T08:11:36;0.60;99.90
53294;DHT22;39181;53.440;5.644;2023-12-04T08:14:03;0.50;99.90
53294;DHT22;39181;53.440;5.644;2023-12-04T08:16:28;0.30;99.90
53294;DHT22;39181;53.440;5.644;2023-12-04T08:18:55;0.80;99.90
53294;DHT22;39181;53.440;5.644;2023-12-04T08:21:20;0.60;99.90
53294;DHT22;39181;53.440;5.644;2023-12-04T08:23:46;0.40;99.90
53294;DHT22;39181;53.440;5.644;2023-12-04T08:26:12;0.30;99.90
53294;DHT22;39181;53.440;5.644;2023-12-04T08:28:37;0.30;99.90
53294;DHT22;39181;53.440;5.644;2023-12-04T08:31:07;0.70;99.90
53294;DHT22;39181;53.440;5.644;2023-12-04T08:33:34;0.80;99.90
53294;DHT22;39181;53.440;5.644;2023-12-04T08:36:00;0.30;99.90
53294;DHT22;39181;53.440;5.644;2023-12-04T08:38:26;0.30;99.90
53294;DHT22;39181;53.440;5.644;2023-12-04T08:40:52;0.80;99.90
53294;DHT22;39181;53.440;5.644;2023-12-04T08:43:18;0.30;99.90
53294;DHT22;39181;53.440;5.644;2023-12-04T08:45:45;0.60;99.90
53294;DHT22;39181;53.440;5.644;2023-12-04T08:48:11;0.50;99.90
53294;DHT22;39181;53.440;5.644;2023-12-04T08:50:36;0.70;99.90
53294;DHT22;39181;53.440;5.644;2023-12-04T08:53:04;0.80;99.90
53294;DHT22;39181;53.440;5.644;2023-12-04T08:55:29;0.60;99.90
53294;DHT22;39181;53.440;5.644;2023-12-04T08:57:55;0.50;99.90
53294;DHT22;39181;53.440;5.644;2023-12-04T09:00:21;1.10;99.90
53294;DHT22;39181;53.440;5.644;2023-12-04T09:02:47;1.00;99.90
53294;DHT22;39181;53.440;5.644;2023-12-04T09:05:13;0.50;99.90
53294;DHT22;39181;53.440;5.644;2023-12-04T09:07:39;0.60;99.90
53294;DHT22;39181;53.440;5.644;2023-12-04T09:10:05;1.00;99.90
53294;DHT22;39181;53.440;5.644;2023-12-04T09:12:31;0.70;99.90
53294;DHT22;39181;53.440;5.644;2023-12-04T09:14:56;0.80;99.90
53294;DHT22;39181;53.440;5.644;2023-12-04T09:17:22;0.70;99.90
53294;DHT22;39181;53.440;5.644;2023-12-04T09:19:47;1.00;99.90
53294;DHT22;39181;53.440;5.644;2023-12-04T09:22:13;1.00;99.90
53294;DHT22;39181;53.440;5.644;2023-12-04T09:24:38;0.80;99.90
53294;DHT22;39181;53.440;5.644;2023-12-04T09:27:04;0.80;99.90
53294;DHT22;39181;53.440;5.644;2023-12-04T09:29:32;1.20;99.90
53294;DHT22;39181;53.440;5.644;2023-12-04T09:31:58;1.20;99.90
53294;DHT22;39181;53.440;5.644;2023-12-04T09:34:23;1.30;99.90
53294;DHT22;39181;53.440;5.644;2023-12-04T09:36:49;1.70;99.90
53294;DHT22;39181;53.440;5.644;2023-12-04T09:39:15;1.10;99.90
53294;DHT22;39181;53.440;5.644;2023-12-04T09:41:42;1.50;99.90
53294;DHT22;39181;53.440;5.644;2023-12-04T09:44:09;1.20;99.90
53294;DHT22;39181;53.440;5.644;2023-12-04T09:46:35;2.20;99.90
53294;DHT22;39181;53.440;5.644;2023-12-04T09:49:01;1.60;99.90
53294;DHT22;39181;53.440;5.644;2023-12-04T09:51:28;1.40;99.90
53294;DHT22;39181;53.440;5.644;2023-12-04T09:53:54;1.70;99.90
53294;DHT22;39181;53.440;5.644;2023-12-04T09:56:21;1.70;99.90
53294;DHT22;39181;53.440;5.644;2023-12-04T09:58:52;1.80;99.90
53294;DHT22;39181;53.440;5.644;2023-12-04T10:01:20;1.70;99.90
53294;DHT22;39181;53.440;5.644;2023-12-04T10:03:47;2.00;99.90
53294;DHT22;39181;53.440;5.644;2023-12-04T10:06:15;2.10;99.90
53294;DHT22;39181;53.440;5.644;2023-12-04T10:08:43;1.80;99.90
53294;DHT22;39181;53.440;5.644;2023-12-04T10:11:10;1.70;99.90
53294;DHT22;39181;53.440;5.644;2023-12-04T10:13:36;1.90;99.90
53294;DHT22;39181;53.440;5.644;2023-12-04T10:16:01;2.00;99.90
53294;DHT22;39181;53.440;5.644;2023-12-04T10:18:29;1.80;99.90
53294;DHT22;39181;53.440;5.644;2023-12-04T10:20:58;1.90;99.90
53294;DHT22;39181;53.440;5.644;2023-12-04T10:23:44;2.20;99.90
53294;DHT22;39181;53.440;5.644;2023-12-04T10:26:09;1.80;99.90
53294;DHT22;39181;53.440;5.644;2023-12-04T10:28:39;1.90;99.90
53294;DHT22;39181;53.440;5.644;2023-12-04T10:31:05;1.80;99.90
53294;DHT22;39181;53.440;5.644;2023-12-04T10:33:32;1.60;99.90
53294;DHT22;39181;53.440;5.644;2023-12-04T10:35:58;1.90;99.90
53294;DHT22;39181;53.440;5.644;2023-12-04T10:38:24;1.60;99.90
53294;DHT22;39181;53.440;5.644;2023-12-04T10:40:51;1.80;99.90
53294;DHT22;39181;53.440;5.644;2023-12-04T10:43:23;1.70;99.90
53294;DHT22;39181;53.440;5.644;2023-12-04T10:45:52;1.60;99.90
53294;DHT22;39181;53.440;5.644;2023-12-04T10:48:20;1.70;99.90
53294;DHT22;39181;53.440;5.644;2023-12-04T10:50:48;1.80;99.90
53294;DHT22;39181;53.440;5.644;2023-12-04T10:53:16;1.90;99.90
53294;DHT22;39181;53.440;5.644;2023-12-04T10:55:43;1.70;99.90
53294;DHT22;39181;53.440;5.644;2023-12-04T10:58:14;1.90;99.90
53294;DHT22;39181;53.440;5.644;2023-12-04T11:00:45;1.70;99.90
53294;DHT22;39181;53.440;5.644;2023-12-04T11:03:24;1.80;99.90
53294;DHT22;39181;53.440;5.644;2023-12-04T11:06:00;1.80;99.90
53294;DHT22;39181;53.440;5.644;2023-12-04T11:08:29;1.80;99.90
53294;DHT22;39181;53.440;5.644;2023-12-04T11:11:04;1.90;99.90
53294;DHT22;39181;53.440;5.644;2023-12-04T11:13:35;2.00;99.90
53294;DHT22;39181;53.440;5.644;2023-12-04T11:16:02;1.90;99.90
53294;DHT22;39181;53.440;5.644;2023-12-04T11:18:36;2.00;99.90
53294;DHT22;39181;53.440;5.644;2023-12-04T11:21:10;1.90;99.90
53294;DHT22;39181;53.440;5.644;2023-12-04T11:23:37;1.90;99.90
53294;DHT22;39181;53.440;5.644;2023-12-04T11:26:04;1.80;99.90
53294;DHT22;39181;53.440;5.644;2023-12-04T11:28:31;1.80;99.90
53294;DHT22;39181;53.440;5.644;2023-12-04T11:30:57;1.80;99.90
53294;DHT22;39181;53.440;5.644;2023-12-04T11:33:24;1.80;99.90
53294;DHT22;39181;53.440;5.644;2023-12-04T11:35:50;1.90;99.90
53294;DHT22;39181;53.440;5.644;2023-12-04T11:38:19;1.90;99.90
53294;DHT22;39181;53.440;5.644;2023-12-04T11:40:46;1.90;99.90
53294;DHT22;39181;53.440;5.644;2023-12-04T11:43:23;1.90;99.90
53294;DHT22;39181;53.440;5.644;2023-12-04T11:45:49;1.80;99.90
53294;DHT22;39181;53.440;5.644;2023-12-04T11:48:15;1.90;99.90
53294;DHT22;39181;53.440;5.644;2023-12-04T11:50:43;1.90;99.90
53294;DHT22;39181;53.440;5.644;2023-12-04T11:53:10;2.10;99.90
53294;DHT22;39181;53.440;5.644;2023-12-04T11:55:39;2.10;99.90
53294;DHT22;39181;53.440;5.644;2023-12-04T11:58:09;2.30;99.90
53294;DHT22;39181;53.440;5.644;2023-12-04T12:00:35;2.30;99.90
53294;DHT22;39181;53.440;5.644;2023-12-04T12:03:03;2.40;99.90
53294;DHT22;39181;53.440;5.644;2023-12-04T12:05:32;2.40;99.90
53294;DHT22;39181;53.440;5.644;2023-12-04T12:08:05;2.40;99.90
53294;DHT22;39181;53.440;5.644;2023-12-04T12:10:31;2.40;99.90
53294;DHT22;39181;53.440;5.644;2023-12-04T12:12:57;2.40;99.90
53294;DHT22;39181;53.440;5.644;2023-12-04T12:15:24;2.40;99.90
53294;DHT22;39181;53.440;5.644;2023-12-04T12:17:50;2.50;99.90
53294;DHT22;39181;53.440;5.644;2023-12-04T12:20:19;2.30;99.90
53294;DHT22;39181;53.440;5.644;2023-12-04T12:22:48;2.30;99.90
53294;DHT22;39181;53.440;5.644;2023-12-04T12:25:15;2.20;99.90
53294;DHT22;39181;53.440;5.644;2023-12-04T12:27:40;2.10;99.90
53294;DHT22;39181;53.440;5.644;2023-12-04T12:30:07;2.00;99.90
53294;DHT22;39181;53.440;5.644;2023-12-04T12:32:33;2.10;99.90
53294;DHT22;39181;53.440;5.644;2023-12-04T12:34:59;2.00;99.90
53294;DHT22;39181;53.440;5.644;2023-12-04T12:37:25;2.00;99.90
53294;DHT22;39181;53.440;5.644;2023-12-04T12:39:51;1.90;99.90
53294;DHT22;39181;53.440;5.644;2023-12-04T12:42:21;2.00;99.90
53294;DHT22;39181;53.440;5.644;2023-12-04T12:44:48;2.00;99.90
53294;DHT22;39181;53.440;5.644;2023-12-04T12:47:15;1.90;99.90
53294;DHT22;39181;53.440;5.644;2023-12-04T12:49:41;2.00;99.90
53294;DHT22;39181;53.440;5.644;2023-12-04T12:52:06;2.00;99.90
53294;DHT22;39181;53.440;5.644;2023-12-04T12:54:38;2.00;99.90
53294;DHT22;39181;53.440;5.644;2023-12-04T12:57:05;1.90;99.90
53294;DHT22;39181;53.440;5.644;2023-12-04T12:59:31;1.80;99.90
53294;DHT22;39181;53.440;5.644;2023-12-04T13:01:56;1.80;99.90
53294;DHT22;39181;53.440;5.644;2023-12-04T13:04:25;1.80;99.90
53294;DHT22;39181;53.440;5.644;2023-12-04T13:06:51;1.90;99.90
53294;DHT22;39181;53.440;5.644;2023-12-04T13:09:16;2.00;99.90
53294;DHT22;39181;53.440;5.644;2023-12-04T13:11:47;1.90;99.90
53294;DHT22;39181;53.440;5.644;2023-12-04T13:14:13;1.80;99.90
53294;DHT22;39181;53.440;5.644;2023-12-04T13:16:39;1.90;99.90
53294;DHT22;39181;53.440;5.644;2023-12-04T13:19:05;1.80;99.90
53294;DHT22;39181;53.440;5.644;2023-12-04T13:21:31;2.30;99.90
53294;DHT22;39181;53.440;5.644;2023-12-04T13:23:57;1.80;99.90
53294;DHT22;39181;53.440;5.644;2023-12-04T13:26:22;1.90;99.90
53294;DHT22;39181;53.440;5.644;2023-12-04T13:28:48;1.80;99.90
53294;DHT22;39181;53.440;5.644;2023-12-04T13:31:14;1.70;99.90
53294;DHT22;39181;53.440;5.644;2023-12-04T13:33:40;1.80;99.90
53294;DHT22;39181;53.440;5.644;2023-12-04T13:36:06;1.70;99.90
53294;DHT22;39181;53.440;5.644;2023-12-04T13:38:31;1.80;99.90
53294;DHT22;39181;53.440;5.644;2023-12-04T13:40:59;1.80;99.90
53294;DHT22;39181;53.440;5.644;2023-12-04T13:43:33;1.80;99.90
53294;DHT22;39181;53.440;5.644;2023-12-04T13:46:17;1.70;99.90
53294;DHT22;39181;53.440;5.644;2023-12-04T13:48:43;1.80;99.90
53294;DHT22;39181;53.440;5.644;2023-12-04T13:51:10;1.80;99.90
53294;DHT22;39181;53.440;5.644;2023-12-04T13:53:37;1.70;99.90
53294;DHT22;39181;53.440;5.644;2023-12-04T13:56:25;1.70;99.90
53294;DHT22;39181;53.440;5.644;2023-12-04T13:59:18;1.70;99.90
53294;DHT22;39181;53.440;5.644;2023-12-04T14:01:45;1.80;99.90
53294;DHT22;39181;53.440;5.644;2023-12-04T14:04:11;1.70;99.90
53294;DHT22;39181;53.440;5.644;2023-12-04T14:06:37;1.70;99.90
53294;DHT22;39181;53.440;5.644;2023-12-04T14:09:03;1.60;99.90
53294;DHT22;39181;53.440;5.644;2023-12-04T14:11:36;1.70;99.90
53294;DHT22;39181;53.440;5.644;2023-12-04T14:14:02;1.70;99.90
53294;DHT22;39181;53.440;5.644;2023-12-04T14:16:27;1.70;99.90
53294;DHT22;39181;53.440;5.644;2023-12-04T14:18:54;1.70;99.90
53294;DHT22;39181;53.440;5.644;2023-12-04T14:21:19;1.70;99.90
53294;DHT22;39181;53.440;5.644;2023-12-04T14:23:45;1.60;99.90
53294;DHT22;39181;53.440;5.644;2023-12-04T14:26:10;1.60;99.90
53294;DHT22;39181;53.440;5.644;2023-12-04T14:28:36;1.60;99.90
53294;DHT22;39181;53.440;5.644;2023-12-04T14:31:02;1.70;99.90
53294;DHT22;39181;53.440;5.644;2023-12-04T14:33:27;1.60;99.90
53294;DHT22;39181;53.440;5.644;2023-12-04T14:35:53;1.60;99.90
53294;DHT22;39181;53.440;5.644;2023-12-04T14:38:18;1.60;99.90
53294;DHT22;39181;53.440;5.644;2023-12-04T14:40:44;1.60;99.90
53294;DHT22;39181;53.440;5.644;2023-12-04T14:43:09;1.60;99.90
53294;DHT22;39181;53.440;5.644;2023-12-04T14:45:37;1.60;99.90
53294;DHT22;39181;53.440;5.644;2023-12-04T14:48:03;1.50;99.90
53294;DHT22;39181;53.440;5.644;2023-12-04T14:50:35;1.50;99.90
53294;DHT22;39181;53.440;5.644;2023-12-04T14:53:02;1.50;99.90
53294;DHT22;39181;53.440;5.644;2023-12-04T14:55:42;1.50;99.90
53294;DHT22;39181;53.440;5.644;2023-12-04T14:58:26;1.50;99.90
53294;DHT22;39181;53.440;5.644;2023-12-04T15:01:21;1.50;99.90
53294;DHT22;39181;53.440;5.644;2023-12-04T15:04:19;1.40;99.90
53294;DHT22;39181;53.440;5.644;2023-12-04T15:07:10;1.50;99.90
53294;DHT22;39181;53.440;5.644;2023-12-04T15:09:54;1.40;99.90
53294;DHT22;39181;53.440;5.644;2023-12-04T15:12:48;1.50;99.90
53294;DHT22;39181;53.440;5.644;2023-12-04T15:15:14;1.20;99.90
53294;DHT22;39181;53.440;5.644;2023-12-04T15:17:54;1.20;99.90
53294;DHT22;39181;53.440;5.644;2023-12-04T15:20:43;1.30;99.90
53294;DHT22;39181;53.440;5.644;2023-12-04T15:23:10;1.10;99.90
53294;DHT22;39181;53.440;5.644;2023-12-04T15:25:35;1.30;99.90
53294;DHT22;39181;53.440;5.644;2023-12-04T15:28:02;1.10;99.90
53294;DHT22;39181;53.440;5.644;2023-12-04T15:30:35;1.30;99.90
53294;DHT22;39181;53.440;5.644;2023-12-04T15:33:01;1.00;99.90
53294;DHT22;39181;53.440;5.644;2023-12-04T15:35:27;1.20;99.90
53294;DHT22;39181;53.440;5.644;2023-12-04T15:37:53;1.20;99.90
53294;DHT22;39181;53.440;5.644;2023-12-04T15:40:19;1.20;99.90
53294;DHT22;39181;53.440;5.644;2023-12-04T15:42:44;1.00;99.90